sensor_id;sensor_type;location;lat;lon;timestamp;P1;durP1;ratioP1;P2;durP2;ratioP2
36575;SDS011;45700;50.930;5.168;2022-07-05T00:03:03;2.20;;;2.00;;
36575;SDS011;45700;50.930;5.168;2022-07-05T00:07:04;1.60;;;1.45;;
36575;SDS011;45700;50.930;5.168;2022-07-05T00:11:17;3.42;;;2.10;;
36575;SDS011;45700;50.930;5.168;2022-07-05T00:15:18;2.83;;;1.92;;
36575;SDS011;45700;50.930;5.168;2022-07-05T00:19:19;9.85;;;4.72;;
36575;SDS011;45700;50.930;5.168;2022-07-05T00:23:20;6.05;;;2.70;;
36575;SDS011;45700;50.930;5.168;2022-07-05T00:27:21;2.63;;;1.63;;
36575;SDS011;45700;50.930;5.168;2022-07-05T00:31:22;3.22;;;1.85;;
36575;SDS011;45700;50.930;5.168;2022-07-05T00:35:23;2.30;;;2.10;;
36575;SDS011;45700;50.930;5.168;2022-07-05T00:39:24;3.13;;;2.30;;
36575;SDS011;45700;50.930;5.168;2022-07-05T00:43:26;3.63;;;2.17;;
36575;SDS011;45700;50.930;5.168;2022-07-05T00:47:27;3.50;;;2.30;;
36575;SDS011;45700;50.930;5.168;2022-07-05T00:51:32;4.03;;;2.50;;
36575;SDS011;45700;50.930;5.168;2022-07-05T00:55:33;3.30;;;2.35;;
36575;SDS011;45700;50.930;5.168;2022-07-05T00:59:35;4.90;;;2.42;;
36575;SDS011;45700;50.930;5.168;2022-07-05T01:03:36;4.75;;;2.58;;
36575;SDS011;45700;50.930;5.168;2022-07-05T01:07:37;3.28;;;2.88;;
36575;SDS011;45700;50.930;5.168;2022-07-05T01:11:38;5.22;;;2.97;;
36575;SDS011;45700;50.930;5.168;2022-07-05T01:15:39;3.60;;;2.28;;
36575;SDS011;45700;50.930;5.168;2022-07-05T01:19:41;3.55;;;2.75;;
36575;SDS011;45700;50.930;5.168;2022-07-05T01:23:42;3.33;;;2.60;;
36575;SDS011;45700;50.930;5.168;2022-07-05T01:27:43;4.30;;;2.70;;
36575;SDS011;45700;50.930;5.168;2022-07-05T01:31:44;4.63;;;2.75;;
36575;SDS011;45700;50.930;5.168;2022-07-05T01:35:45;2.72;;;2.13;;
36575;SDS011;45700;50.930;5.168;2022-07-05T01:39:46;3.13;;;2.35;;
36575;SDS011;45700;50.930;5.168;2022-07-05T01:43:47;3.42;;;2.53;;
36575;SDS011;45700;50.930;5.168;2022-07-05T01:47:48;4.97;;;2.70;;
36575;SDS011;45700;50.930;5.168;2022-07-05T01:51:57;5.25;;;2.60;;
36575;SDS011;45700;50.930;5.168;2022-07-05T01:55:59;9.27;;;3.72;;
36575;SDS011;45700;50.930;5.168;2022-07-05T02:00:00;5.90;;;3.60;;
36575;SDS011;45700;50.930;5.168;2022-07-05T02:04:02;5.75;;;2.78;;
36575;SDS011;45700;50.930;5.168;2022-07-05T02:08:04;4.57;;;3.25;;
36575;SDS011;45700;50.930;5.168;2022-07-05T02:12:05;6.07;;;3.00;;
36575;SDS011;45700;50.930;5.168;2022-07-05T02:16:06;3.70;;;3.08;;
36575;SDS011;45700;50.930;5.168;2022-07-05T02:20:07;3.97;;;2.80;;
36575;SDS011;45700;50.930;5.168;2022-07-05T02:24:08;6.05;;;2.90;;
36575;SDS011;45700;50.930;5.168;2022-07-05T02:28:09;6.30;;;3.40;;
36575;SDS011;45700;50.930;5.168;2022-07-05T02:32:10;4.32;;;3.08;;
36575;SDS011;45700;50.930;5.168;2022-07-05T02:36:12;4.25;;;3.25;;
36575;SDS011;45700;50.930;5.168;2022-07-05T02:40:13;4.43;;;3.33;;
36575;SDS011;45700;50.930;5.168;2022-07-05T02:44:14;5.15;;;3.17;;
36575;SDS011;45700;50.930;5.168;2022-07-05T02:48:15;6.00;;;3.40;;
36575;SDS011;45700;50.930;5.168;2022-07-05T02:52:16;4.97;;;3.58;;
36575;SDS011;45700;50.930;5.168;2022-07-05T02:56:17;5.03;;;3.60;;
36575;SDS011;45700;50.930;5.168;2022-07-05T03:00:18;5.03;;;3.72;;
36575;SDS011;45700;50.930;5.168;2022-07-05T03:04:19;5.07;;;3.60;;
36575;SDS011;45700;50.930;5.168;2022-07-05T03:08:20;4.97;;;3.30;;
36575;SDS011;45700;50.930;5.168;2022-07-05T03:12:21;4.93;;;3.20;;
36575;SDS011;45700;50.930;5.168;2022-07-05T03:16:22;5.13;;;3.83;;
36575;SDS011;45700;50.930;5.168;2022-07-05T03:20:24;6.43;;;4.43;;
36575;SDS011;45700;50.930;5.168;2022-07-05T03:24:25;4.22;;;3.42;;
36575;SDS011;45700;50.930;5.168;2022-07-05T03:28:26;4.65;;;3.35;;
36575;SDS011;45700;50.930;5.168;2022-07-05T03:32:27;4.30;;;3.35;;
36575;SDS011;45700;50.930;5.168;2022-07-05T03:36:28;5.15;;;3.20;;
36575;SDS011;45700;50.930;5.168;2022-07-05T03:40:29;5.18;;;3.72;;
36575;SDS011;45700;50.930;5.168;2022-07-05T03:44:30;4.15;;;3.40;;
36575;SDS011;45700;50.930;5.168;2022-07-05T03:48:32;4.45;;;3.38;;
36575;SDS011;45700;50.930;5.168;2022-07-05T03:52:33;3.60;;;3.25;;
36575;SDS011;45700;50.930;5.168;2022-07-05T03:56:34;4.22;;;3.25;;
36575;SDS011;45700;50.930;5.168;2022-07-05T04:00:35;5.10;;;3.47;;
36575;SDS011;45700;50.930;5.168;2022-07-05T04:04:36;4.30;;;3.40;;
36575;SDS011;45700;50.930;5.168;2022-07-05T04:08:37;4.63;;;3.72;;
36575;SDS011;45700;50.930;5.168;2022-07-05T04:12:38;4.60;;;3.40;;
36575;SDS011;45700;50.930;5.168;2022-07-05T04:16:39;4.40;;;3.38;;
36575;SDS011;45700;50.930;5.168;2022-07-05T04:20:40;4.82;;;3.20;;
36575;SDS011;45700;50.930;5.168;2022-07-05T04:24:41;5.22;;;3.45;;
36575;SDS011;45700;50.930;5.168;2022-07-05T04:33:02;4.78;;;3.30;;
36575;SDS011;45700;50.930;5.168;2022-07-05T04:37:03;7.78;;;3.53;;
36575;SDS011;45700;50.930;5.168;2022-07-05T04:41:04;4.53;;;3.47;;
36575;SDS011;45700;50.930;5.168;2022-07-05T04:45:05;6.38;;;3.60;;
36575;SDS011;45700;50.930;5.168;2022-07-05T04:49:06;7.50;;;4.20;;
36575;SDS011;45700;50.930;5.168;2022-07-05T04:53:07;6.80;;;4.18;;
36575;SDS011;45700;50.930;5.168;2022-07-05T04:57:10;7.05;;;4.55;;
36575;SDS011;45700;50.930;5.168;2022-07-05T05:01:11;8.40;;;4.35;;
36575;SDS011;45700;50.930;5.168;2022-07-05T05:05:12;7.00;;;4.20;;
36575;SDS011;45700;50.930;5.168;2022-07-05T05:09:13;6.45;;;4.30;;
36575;SDS011;45700;50.930;5.168;2022-07-05T05:13:14;7.45;;;4.57;;
36575;SDS011;45700;50.930;5.168;2022-07-05T05:17:15;7.68;;;4.78;;
36575;SDS011;45700;50.930;5.168;2022-07-05T05:21:16;7.63;;;4.85;;
36575;SDS011;45700;50.930;5.168;2022-07-05T05:25:17;8.35;;;4.88;;
36575;SDS011;45700;50.930;5.168;2022-07-05T05:29:18;7.70;;;4.25;;
36575;SDS011;45700;50.930;5.168;2022-07-05T05:33:20;7.72;;;4.78;;
36575;SDS011;45700;50.930;5.168;2022-07-05T05:37:21;6.85;;;4.60;;
36575;SDS011;45700;50.930;5.168;2022-07-05T05:41:22;7.22;;;4.80;;
36575;SDS011;45700;50.930;5.168;2022-07-05T05:45:23;7.55;;;4.57;;
36575;SDS011;45700;50.930;5.168;2022-07-05T05:49:24;8.88;;;4.50;;
36575;SDS011;45700;50.930;5.168;2022-07-05T05:53:25;7.70;;;4.35;;
36575;SDS011;45700;50.930;5.168;2022-07-05T05:57:26;6.38;;;4.20;;
36575;SDS011;45700;50.930;5.168;2022-07-05T06:01:27;10.25;;;4.50;;
36575;SDS011;45700;50.930;5.168;2022-07-05T06:05:28;7.63;;;4.38;;
36575;SDS011;45700;50.930;5.168;2022-07-05T06:09:29;8.68;;;4.93;;
36575;SDS011;45700;50.930;5.168;2022-07-05T06:13:30;7.53;;;4.28;;
36575;SDS011;45700;50.930;5.168;2022-07-05T06:17:35;7.13;;;3.95;;
36575;SDS011;45700;50.930;5.168;2022-07-05T06:21:36;6.63;;;4.60;;
36575;SDS011;45700;50.930;5.168;2022-07-05T06:25:37;7.22;;;4.50;;
36575;SDS011;45700;50.930;5.168;2022-07-05T06:29:39;6.00;;;4.65;;
36575;SDS011;45700;50.930;5.168;2022-07-05T06:33:40;8.35;;;4.18;;
36575;SDS011;45700;50.930;5.168;2022-07-05T06:37:45;5.88;;;4.05;;
36575;SDS011;45700;50.930;5.168;2022-07-05T06:41:46;7.10;;;4.35;;
36575;SDS011;45700;50.930;5.168;2022-07-05T06:45:47;5.95;;;4.05;;
36575;SDS011;45700;50.930;5.168;2022-07-05T06:49:48;6.20;;;4.13;;
36575;SDS011;45700;50.930;5.168;2022-07-05T06:53:49;6.72;;;3.70;;
36575;SDS011;45700;50.930;5.168;2022-07-05T06:57:56;6.85;;;3.88;;
36575;SDS011;45700;50.930;5.168;2022-07-05T07:01:57;6.43;;;4.40;;
36575;SDS011;45700;50.930;5.168;2022-07-05T07:05:58;6.60;;;4.15;;
36575;SDS011;45700;50.930;5.168;2022-07-05T07:10:00;6.82;;;4.32;;
36575;SDS011;45700;50.930;5.168;2022-07-05T07:14:01;6.82;;;4.28;;
36575;SDS011;45700;50.930;5.168;2022-07-05T07:18:02;5.85;;;3.50;;
36575;SDS011;45700;50.930;5.168;2022-07-05T07:22:03;8.50;;;4.32;;
36575;SDS011;45700;50.930;5.168;2022-07-05T07:26:04;4.43;;;3.22;;
36575;SDS011;45700;50.930;5.168;2022-07-05T07:30:06;6.18;;;3.08;;
36575;SDS011;45700;50.930;5.168;2022-07-05T07:34:07;6.43;;;3.60;;
36575;SDS011;45700;50.930;5.168;2022-07-05T07:38:08;5.45;;;2.88;;
36575;SDS011;45700;50.930;5.168;2022-07-05T07:42:09;5.55;;;3.63;;
36575;SDS011;45700;50.930;5.168;2022-07-05T07:46:10;8.23;;;2.72;;
36575;SDS011;45700;50.930;5.168;2022-07-05T07:50:11;5.63;;;3.42;;
36575;SDS011;45700;50.930;5.168;2022-07-05T07:54:12;5.28;;;3.20;;
36575;SDS011;45700;50.930;5.168;2022-07-05T07:58:13;5.85;;;3.60;;
36575;SDS011;45700;50.930;5.168;2022-07-05T08:02:14;3.30;;;2.75;;
36575;SDS011;45700;50.930;5.168;2022-07-05T08:06:16;4.78;;;3.17;;
36575;SDS011;45700;50.930;5.168;2022-07-05T08:10:17;4.38;;;3.00;;
36575;SDS011;45700;50.930;5.168;2022-07-05T08:14:18;4.82;;;2.88;;
36575;SDS011;45700;50.930;5.168;2022-07-05T08:18:19;5.05;;;2.92;;
36575;SDS011;45700;50.930;5.168;2022-07-05T08:22:38;5.68;;;3.20;;
36575;SDS011;45700;50.930;5.168;2022-07-05T08:26:40;3.50;;;2.95;;
36575;SDS011;45700;50.930;5.168;2022-07-05T08:30:41;6.07;;;2.58;;
36575;SDS011;45700;50.930;5.168;2022-07-05T08:34:42;5.88;;;2.85;;
36575;SDS011;45700;50.930;5.168;2022-07-05T08:38:43;4.20;;;2.95;;
36575;SDS011;45700;50.930;5.168;2022-07-05T08:42:44;3.88;;;2.65;;
36575;SDS011;45700;50.930;5.168;2022-07-05T08:46:46;3.90;;;2.17;;
36575;SDS011;45700;50.930;5.168;2022-07-05T08:50:47;3.25;;;2.45;;
36575;SDS011;45700;50.930;5.168;2022-07-05T08:54:51;3.28;;;2.13;;
36575;SDS011;45700;50.930;5.168;2022-07-05T08:58:53;3.50;;;1.98;;
36575;SDS011;45700;50.930;5.168;2022-07-05T09:02:54;1.60;;;1.50;;
36575;SDS011;45700;50.930;5.168;2022-07-05T09:06:56;3.70;;;1.45;;
36575;SDS011;45700;50.930;5.168;2022-07-05T09:10:59;1.85;;;1.58;;
36575;SDS011;45700;50.930;5.168;2022-07-05T09:15:02;2.28;;;1.85;;
36575;SDS011;45700;50.930;5.168;2022-07-05T09:19:05;1.30;;;1.02;;
36575;SDS011;45700;50.930;5.168;2022-07-05T09:23:06;2.80;;;1.63;;
36575;SDS011;45700;50.930;5.168;2022-07-05T09:27:08;1.80;;;1.48;;
36575;SDS011;45700;50.930;5.168;2022-07-05T09:31:16;2.05;;;1.50;;
36575;SDS011;45700;50.930;5.168;2022-07-05T09:35:25;2.88;;;1.17;;
36575;SDS011;45700;50.930;5.168;2022-07-05T09:43:35;3.15;;;1.00;;
36575;SDS011;45700;50.930;5.168;2022-07-05T09:47:38;2.05;;;1.00;;
36575;SDS011;45700;50.930;5.168;2022-07-05T09:51:48;2.00;;;1.20;;
36575;SDS011;45700;50.930;5.168;2022-07-05T09:56:02;1.63;;;1.30;;
36575;SDS011;45700;50.930;5.168;2022-07-05T10:00:05;1.52;;;0.95;;
36575;SDS011;45700;50.930;5.168;2022-07-05T10:04:07;1.85;;;1.27;;
36575;SDS011;45700;50.930;5.168;2022-07-05T10:08:08;2.58;;;1.10;;
36575;SDS011;45700;50.930;5.168;2022-07-05T10:12:10;2.38;;;1.17;;
36575;SDS011;45700;50.930;5.168;2022-07-05T10:16:11;1.70;;;1.15;;
36575;SDS011;45700;50.930;5.168;2022-07-05T10:20:17;2.08;;;1.00;;
36575;SDS011;45700;50.930;5.168;2022-07-05T10:24:20;1.40;;;0.90;;
36575;SDS011;45700;50.930;5.168;2022-07-05T10:28:21;1.25;;;1.00;;
36575;SDS011;45700;50.930;5.168;2022-07-05T10:32:22;4.03;;;1.35;;
36575;SDS011;45700;50.930;5.168;2022-07-05T10:36:24;2.05;;;1.48;;
36575;SDS011;45700;50.930;5.168;2022-07-05T10:40:25;2.58;;;1.38;;
36575;SDS011;45700;50.930;5.168;2022-07-05T10:44:30;1.20;;;1.10;;
36575;SDS011;45700;50.930;5.168;2022-07-05T10:48:32;1.52;;;1.30;;
36575;SDS011;45700;50.930;5.168;2022-07-05T10:52:33;2.92;;;1.17;;
36575;SDS011;45700;50.930;5.168;2022-07-05T10:56:34;2.65;;;1.20;;
36575;SDS011;45700;50.930;5.168;2022-07-05T11:00:36;1.13;;;0.90;;
36575;SDS011;45700;50.930;5.168;2022-07-05T11:04:37;1.58;;;1.13;;
36575;SDS011;45700;50.930;5.168;2022-07-05T11:09:21;5.95;;;1.30;;
36575;SDS011;45700;50.930;5.168;2022-07-05T11:13:34;2.00;;;1.02;;
36575;SDS011;45700;50.930;5.168;2022-07-05T11:17:24;1.35;;;0.98;;
36575;SDS011;45700;50.930;5.168;2022-07-05T11:21:30;1.67;;;1.15;;
36575;SDS011;45700;50.930;5.168;2022-07-05T11:25:32;1.90;;;1.13;;
36575;SDS011;45700;50.930;5.168;2022-07-05T11:33:47;1.52;;;1.00;;
36575;SDS011;45700;50.930;5.168;2022-07-05T11:42:00;1.83;;;1.02;;
36575;SDS011;45700;50.930;5.168;2022-07-05T11:46:01;2.33;;;1.20;;
36575;SDS011;45700;50.930;5.168;2022-07-05T11:50:03;1.38;;;1.00;;
36575;SDS011;45700;50.930;5.168;2022-07-05T11:54:04;1.70;;;1.10;;
36575;SDS011;45700;50.930;5.168;2022-07-05T11:58:08;2.40;;;1.08;;
36575;SDS011;45700;50.930;5.168;2022-07-05T12:02:10;2.45;;;0.95;;
36575;SDS011;45700;50.930;5.168;2022-07-05T12:06:11;2.58;;;1.08;;
36575;SDS011;45700;50.930;5.168;2022-07-05T12:10:12;0.82;;;0.80;;
36575;SDS011;45700;50.930;5.168;2022-07-05T12:14:32;1.42;;;1.08;;
36575;SDS011;45700;50.930;5.168;2022-07-05T12:18:45;2.00;;;1.10;;
36575;SDS011;45700;50.930;5.168;2022-07-05T12:22:46;2.08;;;1.05;;
36575;SDS011;45700;50.930;5.168;2022-07-05T12:26:47;2.58;;;1.05;;
36575;SDS011;45700;50.930;5.168;2022-07-05T12:30:50;2.10;;;0.93;;
36575;SDS011;45700;50.930;5.168;2022-07-05T12:34:51;1.70;;;0.85;;
36575;SDS011;45700;50.930;5.168;2022-07-05T12:38:59;1.02;;;0.90;;
36575;SDS011;45700;50.930;5.168;2022-07-05T12:43:10;2.42;;;1.13;;
36575;SDS011;45700;50.930;5.168;2022-07-05T12:47:11;1.63;;;1.00;;
36575;SDS011;45700;50.930;5.168;2022-07-05T12:51:12;1.50;;;1.00;;
36575;SDS011;45700;50.930;5.168;2022-07-05T12:55:13;2.00;;;1.25;;
36575;SDS011;45700;50.930;5.168;2022-07-05T12:59:32;1.25;;;1.00;;
36575;SDS011;45700;50.930;5.168;2022-07-05T13:03:54;4.03;;;1.40;;
36575;SDS011;45700;50.930;5.168;2022-07-05T13:07:55;1.35;;;1.25;;
36575;SDS011;45700;50.930;5.168;2022-07-05T13:12:15;1.98;;;1.13;;
36575;SDS011;45700;50.930;5.168;2022-07-05T13:16:18;1.42;;;1.17;;
36575;SDS011;45700;50.930;5.168;2022-07-05T13:20:20;1.95;;;1.20;;
36575;SDS011;45700;50.930;5.168;2022-07-05T13:24:22;2.72;;;1.40;;
36575;SDS011;45700;50.930;5.168;2022-07-05T13:28:23;2.05;;;1.55;;
36575;SDS011;45700;50.930;5.168;2022-07-05T13:32:24;3.50;;;1.88;;
36575;SDS011;45700;50.930;5.168;2022-07-05T13:36:26;3.97;;;1.90;;
36575;SDS011;45700;50.930;5.168;2022-07-05T13:40:27;6.72;;;1.85;;
36575;SDS011;45700;50.930;5.168;2022-07-05T13:44:28;3.50;;;1.85;;
36575;SDS011;45700;50.930;5.168;2022-07-05T13:48:29;5.25;;;1.70;;
36575;SDS011;45700;50.930;5.168;2022-07-05T13:52:30;2.38;;;1.52;;
36575;SDS011;45700;50.930;5.168;2022-07-05T13:56:31;3.10;;;1.73;;
36575;SDS011;45700;50.930;5.168;2022-07-05T14:00:32;2.13;;;1.73;;
36575;SDS011;45700;50.930;5.168;2022-07-05T14:04:33;4.20;;;2.20;;
36575;SDS011;45700;50.930;5.168;2022-07-05T14:08:34;3.72;;;2.00;;
36575;SDS011;45700;50.930;5.168;2022-07-05T14:12:35;3.40;;;2.00;;
36575;SDS011;45700;50.930;5.168;2022-07-05T14:16:36;1.90;;;1.70;;
36575;SDS011;45700;50.930;5.168;2022-07-05T14:20:37;3.78;;;2.50;;
36575;SDS011;45700;50.930;5.168;2022-07-05T14:24:38;3.42;;;2.20;;
36575;SDS011;45700;50.930;5.168;2022-07-05T14:28:39;1.70;;;1.60;;
36575;SDS011;45700;50.930;5.168;2022-07-05T14:32:40;5.43;;;2.33;;
36575;SDS011;45700;50.930;5.168;2022-07-05T14:36:41;2.45;;;1.98;;
36575;SDS011;45700;50.930;5.168;2022-07-05T14:40:42;2.38;;;2.17;;
36575;SDS011;45700;50.930;5.168;2022-07-05T14:44:44;1.70;;;1.10;;
36575;SDS011;45700;50.930;5.168;2022-07-05T14:48:45;3.05;;;0.90;;
36575;SDS011;45700;50.930;5.168;2022-07-05T14:52:47;2.55;;;1.00;;
36575;SDS011;45700;50.930;5.168;2022-07-05T14:56:48;1.95;;;0.90;;
36575;SDS011;45700;50.930;5.168;2022-07-05T15:00:49;2.28;;;1.00;;
36575;SDS011;45700;50.930;5.168;2022-07-05T15:04:50;1.38;;;1.20;;
36575;SDS011;45700;50.930;5.168;2022-07-05T15:08:51;1.23;;;0.80;;
36575;SDS011;45700;50.930;5.168;2022-07-05T15:12:53;0.70;;;0.70;;
36575;SDS011;45700;50.930;5.168;2022-07-05T15:16:54;1.45;;;0.75;;
36575;SDS011;45700;50.930;5.168;2022-07-05T15:20:55;1.10;;;0.98;;
36575;SDS011;45700;50.930;5.168;2022-07-05T15:24:56;0.82;;;0.77;;
36575;SDS011;45700;50.930;5.168;2022-07-05T15:29:05;0.93;;;0.80;;
36575;SDS011;45700;50.930;5.168;2022-07-05T15:37:07;1.52;;;0.80;;
36575;SDS011;45700;50.930;5.168;2022-07-05T15:41:08;0.73;;;0.73;;
36575;SDS011;45700;50.930;5.168;2022-07-05T15:45:09;2.05;;;0.68;;
36575;SDS011;45700;50.930;5.168;2022-07-05T15:49:10;0.77;;;0.70;;
36575;SDS011;45700;50.930;5.168;2022-07-05T15:53:11;0.68;;;0.60;;
36575;SDS011;45700;50.930;5.168;2022-07-05T15:57:12;0.80;;;0.55;;
36575;SDS011;45700;50.930;5.168;2022-07-05T16:01:13;1.27;;;0.70;;
36575;SDS011;45700;50.930;5.168;2022-07-05T16:05:14;1.38;;;0.80;;
36575;SDS011;45700;50.930;5.168;2022-07-05T16:09:16;0.85;;;0.65;;
36575;SDS011;45700;50.930;5.168;2022-07-05T16:13:17;0.70;;;0.70;;
36575;SDS011;45700;50.930;5.168;2022-07-05T16:17:19;4.07;;;0.93;;
36575;SDS011;45700;50.930;5.168;2022-07-05T16:21:20;2.05;;;0.77;;
36575;SDS011;45700;50.930;5.168;2022-07-05T16:25:21;1.58;;;0.80;;
36575;SDS011;45700;50.930;5.168;2022-07-05T16:29:22;0.85;;;0.85;;
36575;SDS011;45700;50.930;5.168;2022-07-05T16:33:23;0.98;;;0.73;;
36575;SDS011;45700;50.930;5.168;2022-07-05T16:37:24;2.08;;;0.80;;
36575;SDS011;45700;50.930;5.168;2022-07-05T16:41:25;1.33;;;0.73;;
36575;SDS011;45700;50.930;5.168;2022-07-05T16:45:26;0.75;;;0.60;;
36575;SDS011;45700;50.930;5.168;2022-07-05T16:49:28;1.17;;;0.65;;
36575;SDS011;45700;50.930;5.168;2022-07-05T16:53:30;0.98;;;0.60;;
36575;SDS011;45700;50.930;5.168;2022-07-05T16:57:34;1.02;;;0.70;;
36575;SDS011;45700;50.930;5.168;2022-07-05T17:01:35;2.17;;;0.85;;
36575;SDS011;45700;50.930;5.168;2022-07-05T17:05:36;0.82;;;0.80;;
36575;SDS011;45700;50.930;5.168;2022-07-05T17:09:39;1.55;;;0.60;;
36575;SDS011;45700;50.930;5.168;2022-07-05T17:13:41;1.10;;;0.80;;
36575;SDS011;45700;50.930;5.168;2022-07-05T17:17:43;0.93;;;0.70;;
36575;SDS011;45700;50.930;5.168;2022-07-05T17:21:44;0.50;;;0.50;;
36575;SDS011;45700;50.930;5.168;2022-07-05T17:25:46;0.90;;;0.55;;
36575;SDS011;45700;50.930;5.168;2022-07-05T17:29:47;0.93;;;0.60;;
36575;SDS011;45700;50.930;5.168;2022-07-05T17:33:48;0.50;;;0.50;;
36575;SDS011;45700;50.930;5.168;2022-07-05T17:37:50;0.80;;;0.57;;
36575;SDS011;45700;50.930;5.168;2022-07-05T17:41:51;2.38;;;0.55;;
36575;SDS011;45700;50.930;5.168;2022-07-05T17:45:52;0.60;;;0.55;;
36575;SDS011;45700;50.930;5.168;2022-07-05T17:49:53;2.30;;;0.60;;
36575;SDS011;45700;50.930;5.168;2022-07-05T17:53:54;1.02;;;0.60;;
36575;SDS011;45700;50.930;5.168;2022-07-05T17:57:55;0.63;;;0.60;;
36575;SDS011;45700;50.930;5.168;2022-07-05T18:01:56;0.63;;;0.63;;
36575;SDS011;45700;50.930;5.168;2022-07-05T18:05:57;1.00;;;0.73;;
36575;SDS011;45700;50.930;5.168;2022-07-05T18:09:58;1.08;;;0.60;;
36575;SDS011;45700;50.930;5.168;2022-07-05T18:13:59;1.67;;;0.70;;
36575;SDS011;45700;50.930;5.168;2022-07-05T18:18:03;1.67;;;0.70;;
36575;SDS011;45700;50.930;5.168;2022-07-05T18:22:04;0.93;;;0.82;;
36575;SDS011;45700;50.930;5.168;2022-07-05T18:26:05;1.17;;;0.77;;
36575;SDS011;45700;50.930;5.168;2022-07-05T18:30:06;1.95;;;0.60;;
36575;SDS011;45700;50.930;5.168;2022-07-05T18:34:08;0.50;;;0.50;;
36575;SDS011;45700;50.930;5.168;2022-07-05T18:38:09;3.13;;;0.80;;
36575;SDS011;45700;50.930;5.168;2022-07-05T18:42:10;1.45;;;0.73;;
36575;SDS011;45700;50.930;5.168;2022-07-05T18:46:11;1.23;;;0.60;;
36575;SDS011;45700;50.930;5.168;2022-07-05T18:50:12;1.85;;;0.80;;
36575;SDS011;45700;50.930;5.168;2022-07-05T18:54:13;0.82;;;0.60;;
36575;SDS011;45700;50.930;5.168;2022-07-05T18:58:14;1.67;;;0.90;;
36575;SDS011;45700;50.930;5.168;2022-07-05T19:02:16;2.15;;;0.77;;
36575;SDS011;45700;50.930;5.168;2022-07-05T19:06:17;1.42;;;0.60;;
36575;SDS011;45700;50.930;5.168;2022-07-05T19:10:38;0.90;;;0.80;;
36575;SDS011;45700;50.930;5.168;2022-07-05T19:14:59;1.15;;;0.70;;
36575;SDS011;45700;50.930;5.168;2022-07-05T19:19:00;0.75;;;0.60;;
36575;SDS011;45700;50.930;5.168;2022-07-05T19:23:01;1.38;;;0.60;;
36575;SDS011;45700;50.930;5.168;2022-07-05T19:27:03;1.83;;;0.68;;
36575;SDS011;45700;50.930;5.168;2022-07-05T19:31:04;1.23;;;0.90;;
36575;SDS011;45700;50.930;5.168;2022-07-05T19:35:05;0.73;;;0.60;;
36575;SDS011;45700;50.930;5.168;2022-07-05T19:39:07;1.52;;;0.70;;
36575;SDS011;45700;50.930;5.168;2022-07-05T19:43:08;1.23;;;0.77;;
36575;SDS011;45700;50.930;5.168;2022-07-05T19:47:09;1.88;;;0.70;;
36575;SDS011;45700;50.930;5.168;2022-07-05T19:51:10;2.65;;;0.90;;
36575;SDS011;45700;50.930;5.168;2022-07-05T19:55:11;1.48;;;0.82;;
36575;SDS011;45700;50.930;5.168;2022-07-05T19:59:12;2.17;;;0.80;;
36575;SDS011;45700;50.930;5.168;2022-07-05T20:03:12;1.20;;;0.82;;
36575;SDS011;45700;50.930;5.168;2022-07-05T20:07:13;0.57;;;0.57;;
36575;SDS011;45700;50.930;5.168;2022-07-05T20:11:14;2.10;;;0.70;;
36575;SDS011;45700;50.930;5.168;2022-07-05T20:15:15;0.82;;;0.57;;
36575;SDS011;45700;50.930;5.168;2022-07-05T20:19:16;1.27;;;1.17;;
36575;SDS011;45700;50.930;5.168;2022-07-05T20:23:18;3.58;;;1.13;;
36575;SDS011;45700;50.930;5.168;2022-07-05T20:27:19;2.20;;;1.08;;
36575;SDS011;45700;50.930;5.168;2022-07-05T20:31:19;1.63;;;0.93;;
36575;SDS011;45700;50.930;5.168;2022-07-05T20:35:20;1.92;;;1.05;;
36575;SDS011;45700;50.930;5.168;2022-07-05T20:39:21;1.38;;;0.90;;
36575;SDS011;45700;50.930;5.168;2022-07-05T20:43:22;1.23;;;0.90;;
36575;SDS011;45700;50.930;5.168;2022-07-05T20:47:23;1.73;;;0.80;;
36575;SDS011;45700;50.930;5.168;2022-07-05T20:51:25;2.38;;;0.82;;
36575;SDS011;45700;50.930;5.168;2022-07-05T20:55:26;1.05;;;0.82;;
36575;SDS011;45700;50.930;5.168;2022-07-05T20:59:27;2.17;;;0.90;;
36575;SDS011;45700;50.930;5.168;2022-07-05T21:03:28;1.23;;;1.00;;
36575;SDS011;45700;50.930;5.168;2022-07-05T21:07:29;2.15;;;1.00;;
36575;SDS011;45700;50.930;5.168;2022-07-05T21:11:30;2.13;;;1.15;;
36575;SDS011;45700;50.930;5.168;2022-07-05T21:15:31;1.58;;;0.88;;
36575;SDS011;45700;50.930;5.168;2022-07-05T21:19:32;3.15;;;0.95;;
36575;SDS011;45700;50.930;5.168;2022-07-05T21:23:33;1.38;;;1.00;;
36575;SDS011;45700;50.930;5.168;2022-07-05T21:27:34;1.77;;;1.00;;
36575;SDS011;45700;50.930;5.168;2022-07-05T21:31:35;2.47;;;1.42;;
36575;SDS011;45700;50.930;5.168;2022-07-05T21:35:38;3.55;;;1.40;;
36575;SDS011;45700;50.930;5.168;2022-07-05T21:39:39;2.22;;;1.05;;
36575;SDS011;45700;50.930;5.168;2022-07-05T21:43:40;3.70;;;1.67;;
36575;SDS011;45700;50.930;5.168;2022-07-05T21:47:41;2.95;;;1.20;;
36575;SDS011;45700;50.930;5.168;2022-07-05T21:51:42;2.63;;;1.30;;
36575;SDS011;45700;50.930;5.168;2022-07-05T21:55:43;1.55;;;1.20;;
36575;SDS011;45700;50.930;5.168;2022-07-05T21:59:44;2.58;;;1.77;;
36575;SDS011;45700;50.930;5.168;2022-07-05T22:08:24;2.07;;;1.53;;
36575;SDS011;45700;50.930;5.168;2022-07-05T22:12:25;2.42;;;1.50;;
36575;SDS011;45700;50.930;5.168;2022-07-05T22:16:26;1.88;;;1.10;;
36575;SDS011;45700;50.930;5.168;2022-07-05T22:20:27;2.72;;;1.55;;
36575;SDS011;45700;50.930;5.168;2022-07-05T22:24:28;1.88;;;1.38;;
36575;SDS011;45700;50.930;5.168;2022-07-05T22:28:29;2.47;;;1.60;;
36575;SDS011;45700;50.930;5.168;2022-07-05T22:32:30;3.75;;;1.58;;
36575;SDS011;45700;50.930;5.168;2022-07-05T22:36:32;3.53;;;1.73;;
36575;SDS011;45700;50.930;5.168;2022-07-05T22:40:34;3.60;;;1.92;;
36575;SDS011;45700;50.930;5.168;2022-07-05T22:44:36;3.95;;;1.70;;
36575;SDS011;45700;50.930;5.168;2022-07-05T22:48:37;4.88;;;1.95;;
36575;SDS011;45700;50.930;5.168;2022-07-05T22:52:38;4.03;;;2.28;;
36575;SDS011;45700;50.930;5.168;2022-07-05T22:56:39;5.28;;;2.38;;
36575;SDS011;45700;50.930;5.168;2022-07-05T23:00:40;3.70;;;1.95;;
36575;SDS011;45700;50.930;5.168;2022-07-05T23:04:41;4.25;;;2.33;;
36575;SDS011;45700;50.930;5.168;2022-07-05T23:08:42;2.90;;;2.25;;
36575;SDS011;45700;50.930;5.168;2022-07-05T23:12:43;4.13;;;2.13;;
36575;SDS011;45700;50.930;5.168;2022-07-05T23:16:44;3.08;;;1.88;;
36575;SDS011;45700;50.930;5.168;2022-07-05T23:20:45;6.30;;;2.38;;
36575;SDS011;45700;50.930;5.168;2022-07-05T23:24:46;4.20;;;2.38;;
36575;SDS011;45700;50.930;5.168;2022-07-05T23:28:56;3.92;;;2.55;;
36575;SDS011;45700;50.930;5.168;2022-07-05T23:32:57;3.25;;;2.47;;
36575;SDS011;45700;50.930;5.168;2022-07-05T23:36:58;4.40;;;2.20;;
36575;SDS011;45700;50.930;5.168;2022-07-05T23:40:59;5.00;;;2.20;;
36575;SDS011;45700;50.930;5.168;2022-07-05T23:45:00;5.47;;;2.63;;
36575;SDS011;45700;50.930;5.168;2022-07-05T23:49:01;5.80;;;2.97;;
36575;SDS011;45700;50.930;5.168;2022-07-05T23:53:02;4.45;;;2.72;;
36575;SDS011;45700;50.930;5.168;2022-07-05T23:57:03;6.60;;;3.33;;
